createdAt,value
2023-01-19T00:00:48.586Z,3.11
2023-01-19T00:03:20.006Z,3.14
2023-01-19T00:05:51.641Z,3.19
2023-01-19T00:08:23.113Z,3.14
2023-01-19T00:10:54.662Z,3.08
2023-01-19T00:13:26.339Z,3.06
2023-01-19T00:15:58.836Z,3.02
2023-01-19T00:18:30.865Z,3.05
2023-01-19T00:21:02.227Z,3.09
2023-01-19T00:23:33.714Z,3.16
2023-01-19T00:26:05.276Z,3.27
2023-01-19T00:28:36.841Z,3.21
2023-01-19T00:31:08.518Z,3.21
2023-01-19T00:33:39.911Z,3.18
2023-01-19T00:36:13.176Z,3.11
2023-01-19T00:38:44.914Z,3.16
2023-01-19T00:41:16.282Z,3.24
2023-01-19T00:43:47.903Z,3.10
2023-01-19T00:46:19.338Z,3.07
2023-01-19T00:48:50.886Z,3.15
2023-01-19T00:51:22.495Z,3.28
2023-01-19T00:53:55.329Z,3.31
2023-01-19T00:56:27.408Z,3.28
2023-01-19T00:58:58.750Z,3.31
2023-01-19T01:01:45.859Z,3.39
2023-01-19T01:04:18.050Z,3.28
2023-01-19T01:06:49.472Z,3.17
2023-01-19T01:09:21.140Z,3.20
2023-01-19T01:11:52.983Z,3.20
2023-01-19T01:14:25.273Z,3.21
2023-01-19T01:16:57.842Z,3.06
2023-01-19T01:19:29.570Z,2.97
2023-01-19T01:22:01.077Z,2.96
2023-01-19T01:24:32.510Z,3.04
2023-01-19T01:27:04.070Z,3.04
2023-01-19T01:29:36.015Z,3.05
2023-01-19T01:32:07.578Z,3.05
2023-01-19T01:34:40.831Z,3.12
2023-01-19T01:37:12.360Z,3.10
2023-01-19T01:39:43.797Z,3.10
2023-01-19T01:42:21.402Z,3.06
2023-01-19T01:44:56.608Z,3.08
2023-01-19T01:47:33.745Z,3.04
2023-01-19T01:50:10.638Z,2.98
2023-01-19T01:53:07.232Z,2.95
2023-01-19T01:55:43.412Z,3.05
2023-01-19T01:58:18.536Z,2.92
2023-01-19T02:01:07.355Z,2.82
2023-01-19T02:03:39.372Z,2.79
2023-01-19T02:06:12.268Z,2.75
2023-01-19T02:09:07.083Z,2.74
2023-01-19T02:11:56.376Z,2.79
2023-01-19T02:14:28.005Z,2.88
2023-01-19T02:16:59.779Z,2.86
2023-01-19T02:19:37.784Z,2.91
2023-01-19T02:22:14.417Z,2.77
2023-01-19T02:24:46.623Z,2.78
2023-01-19T02:27:18.531Z,2.76
2023-01-19T02:29:49.960Z,2.83
2023-01-19T02:32:21.547Z,2.90
2023-01-19T02:34:53.636Z,2.83
2023-01-19T02:37:26.090Z,2.83
2023-01-19T02:40:02.453Z,2.77
2023-01-19T02:42:38.970Z,2.80
2023-01-19T02:45:12.970Z,2.86
2023-01-19T02:47:48.397Z,2.83
2023-01-19T02:50:53.703Z,2.85
2023-01-19T02:53:46.191Z,2.95
2023-01-19T02:56:49.879Z,2.89
2023-01-19T02:59:44.462Z,2.83
2023-01-19T03:02:27.684Z,2.89
2023-01-19T03:05:10.219Z,2.97
2023-01-19T03:07:52.463Z,2.91
2023-01-19T03:10:33.882Z,2.94
2023-01-19T03:13:12.661Z,2.98
2023-01-19T03:15:50.217Z,2.95
2023-01-19T03:18:27.327Z,2.82
2023-01-19T03:21:01.386Z,2.79
2023-01-19T03:23:36.767Z,2.85
2023-01-19T03:26:12.895Z,2.93
2023-01-19T03:28:47.724Z,2.96
2023-01-19T03:31:18.771Z,2.85
2023-01-19T03:33:54.350Z,2.80
2023-01-19T03:36:31.553Z,2.80
2023-01-19T03:39:06.754Z,2.72
2023-01-19T03:41:41.110Z,2.73
2023-01-19T03:44:13.005Z,2.72
2023-01-19T03:46:46.001Z,2.72
2023-01-19T03:49:18.009Z,2.78
2023-01-19T03:51:49.518Z,2.83
2023-01-19T03:54:20.932Z,2.89
2023-01-19T03:56:52.794Z,2.86
2023-01-19T03:59:24.478Z,2.76
2023-01-19T04:01:56.238Z,2.68
2023-01-19T04:04:27.688Z,2.69
2023-01-19T04:06:59.237Z,2.66
2023-01-19T04:09:30.778Z,2.70
2023-01-19T04:12:04.272Z,2.70
2023-01-19T04:14:35.955Z,2.72
2023-01-19T04:17:07.316Z,2.84
2023-01-19T04:19:38.996Z,2.96
2023-01-19T04:22:11.073Z,2.90
2023-01-19T04:24:42.438Z,2.81
2023-01-19T04:27:15.348Z,2.79
2023-01-19T04:29:46.836Z,2.85
2023-01-19T04:32:18.505Z,2.86
2023-01-19T04:35:27.712Z,2.91
2023-01-19T04:38:01.058Z,2.97
2023-01-19T04:40:32.469Z,3.00
2023-01-19T04:43:04.127Z,2.88
2023-01-19T04:45:36.853Z,2.81
2023-01-19T04:48:08.928Z,2.80
2023-01-19T04:50:42.433Z,2.82
2023-01-19T04:53:16.544Z,2.69
2023-01-19T04:55:48.345Z,2.69
2023-01-19T04:58:19.735Z,2.63
2023-01-19T05:00:52.423Z,2.63
2023-01-19T05:03:25.707Z,2.67
2023-01-19T05:05:59.927Z,2.84
2023-01-19T05:08:31.411Z,2.92
2023-01-19T05:11:02.922Z,2.95
2023-01-19T05:13:35.120Z,2.84
2023-01-19T05:16:07.488Z,2.89
2023-01-19T05:18:39.134Z,2.90
2023-01-19T05:21:11.000Z,2.88
2023-01-19T05:23:42.567Z,2.88
2023-01-19T05:26:14.424Z,2.93
2023-01-19T05:28:45.910Z,2.89
2023-01-19T05:31:18.791Z,2.96
2023-01-19T05:33:51.069Z,2.87
2023-01-19T05:36:22.531Z,2.77
2023-01-19T05:38:53.891Z,2.78
2023-01-19T05:41:25.430Z,2.86
2023-01-19T05:43:56.903Z,2.91
2023-01-19T05:46:28.453Z,2.88
2023-01-19T05:49:01.917Z,2.98
2023-01-19T05:51:38.122Z,2.98
2023-01-19T05:54:10.306Z,3.01
2023-01-19T05:56:41.690Z,3.08
2023-01-19T05:59:13.898Z,3.00
2023-01-19T06:01:45.620Z,2.92
2023-01-19T06:04:17.025Z,2.93
2023-01-19T06:06:50.492Z,2.98
2023-01-19T06:09:21.936Z,3.05
2023-01-19T06:11:54.518Z,3.13
2023-01-19T06:14:26.083Z,3.13
2023-01-19T06:16:57.485Z,3.15
2023-01-19T06:19:29.421Z,3.09
2023-01-19T06:22:01.009Z,3.09
2023-01-19T06:24:33.175Z,3.07
2023-01-19T06:27:04.697Z,3.02
2023-01-19T06:29:36.421Z,2.95
2023-01-19T06:32:08.431Z,2.93
2023-01-19T06:34:44.063Z,2.94
2023-01-19T06:37:16.440Z,3.03
2023-01-19T06:39:47.744Z,3.10
2023-01-19T06:42:19.167Z,3.23
2023-01-19T06:44:50.787Z,3.26
2023-01-19T06:47:22.267Z,3.22
2023-01-19T06:49:53.676Z,3.13
2023-01-19T06:52:25.110Z,3.14
2023-01-19T06:54:56.638Z,3.14
2023-01-19T06:57:28.222Z,3.11
2023-01-19T07:00:01.825Z,3.02
2023-01-19T07:02:33.305Z,3.02
2023-01-19T07:05:07.123Z,3.12
2023-01-19T07:07:39.974Z,3.21
2023-01-19T07:10:13.331Z,3.23
2023-01-19T07:12:46.814Z,3.09
2023-01-19T07:15:19.862Z,3.12
2023-01-19T07:17:51.758Z,3.11
2023-01-19T07:20:23.477Z,3.10
2023-01-19T07:22:59.181Z,3.13
2023-01-19T07:25:30.785Z,3.12
2023-01-19T07:28:03.115Z,3.06
2023-01-19T07:30:34.872Z,3.05
2023-01-19T07:33:06.410Z,3.01
2023-01-19T07:35:37.947Z,2.91
2023-01-19T07:38:09.425Z,2.92
2023-01-19T07:40:40.777Z,2.98
2023-01-19T07:43:12.234Z,2.96
2023-01-19T07:45:45.280Z,2.88
2023-01-19T07:48:16.831Z,2.83
2023-01-19T07:50:48.688Z,2.83
2023-01-19T07:53:20.302Z,2.78
2023-01-19T07:55:57.977Z,2.71
2023-01-19T07:58:29.606Z,2.83
2023-01-19T08:01:02.480Z,2.91
2023-01-19T08:03:33.893Z,2.98
2023-01-19T08:06:06.398Z,3.03
2023-01-19T08:08:38.102Z,3.09
2023-01-19T08:11:10.138Z,3.08
2023-01-19T08:13:41.716Z,2.98
2023-01-19T08:16:13.414Z,2.88
2023-01-19T08:18:45.126Z,2.88
2023-01-19T08:21:17.086Z,3.07
2023-01-19T08:23:55.680Z,3.09
2023-01-19T08:26:30.786Z,3.13
2023-01-19T08:29:03.904Z,3.14
2023-01-19T08:31:38.241Z,3.14
2023-01-19T08:34:10.182Z,3.18
2023-01-19T08:36:41.799Z,3.27
2023-01-19T08:39:14.442Z,3.27
2023-01-19T08:41:45.892Z,3.23
2023-01-19T08:44:17.505Z,3.19
2023-01-19T08:46:49.112Z,3.29
2023-01-19T08:49:20.934Z,3.29
2023-01-19T08:51:52.392Z,3.40
2023-01-19T08:54:24.481Z,3.48
2023-01-19T08:56:57.126Z,3.50
2023-01-19T08:59:28.662Z,3.39
2023-01-19T09:02:00.214Z,3.45
2023-01-19T09:04:33.244Z,3.66
2023-01-19T09:09:40.554Z,3.42
2023-01-19T09:12:12.151Z,3.33
2023-01-19T09:14:43.835Z,3.22
2023-01-19T09:17:18.319Z,3.17
2023-01-19T09:19:49.886Z,3.26
2023-01-19T09:22:21.349Z,3.32
2023-01-19T09:24:53.713Z,3.37
2023-01-19T09:27:25.203Z,3.34
2023-01-19T09:29:56.587Z,3.45
2023-01-19T09:32:29.709Z,3.48
2023-01-19T09:35:01.274Z,3.46
2023-01-19T09:37:32.892Z,3.51
2023-01-19T09:40:05.110Z,3.44
2023-01-19T09:42:44.995Z,3.44
2023-01-19T09:45:21.246Z,3.46
2023-01-19T09:47:53.905Z,3.47
2023-01-19T09:50:30.351Z,3.46
2023-01-19T09:53:11.710Z,3.36
2023-01-19T09:55:44.147Z,3.43
2023-01-19T09:58:19.528Z,3.52
2023-01-19T10:00:58.707Z,3.47
2023-01-19T10:03:30.777Z,3.54
2023-01-19T10:06:06.417Z,3.54
2023-01-19T10:08:43.129Z,3.54
2023-01-19T10:11:31.853Z,3.54
2023-01-19T10:14:14.953Z,3.68
2023-01-19T10:16:55.305Z,3.69
2023-01-19T10:19:38.128Z,3.80
2023-01-19T10:22:27.475Z,3.84
2023-01-19T10:25:01.745Z,3.78
2023-01-19T10:27:37.904Z,3.73
2023-01-19T10:30:16.898Z,3.61
2023-01-19T10:32:48.398Z,3.63
2023-01-19T10:35:24.849Z,3.66
2023-01-19T10:38:00.298Z,3.62
2023-01-19T10:40:36.714Z,3.65
2023-01-19T10:43:39.204Z,3.66
2023-01-19T10:46:18.714Z,3.67
2023-01-19T10:48:52.107Z,3.62
2023-01-19T10:51:24.141Z,3.52
2023-01-19T10:54:13.462Z,3.55
2023-01-19T10:56:45.097Z,3.61
2023-01-19T10:59:34.578Z,3.71
2023-01-19T11:02:19.834Z,3.70
2023-01-19T11:04:53.373Z,3.74
2023-01-19T11:07:30.892Z,3.81
2023-01-19T11:10:26.173Z,3.76
2023-01-19T11:13:07.808Z,3.73
2023-01-19T11:15:46.300Z,3.76
2023-01-19T11:18:32.307Z,3.77
2023-01-19T11:21:06.776Z,3.80
2023-01-19T11:23:43.309Z,3.73
2023-01-19T11:26:26.189Z,3.65
2023-01-19T11:28:59.240Z,3.66
2023-01-19T11:31:38.583Z,3.73
2023-01-19T11:34:28.236Z,3.81
2023-01-19T11:37:04.829Z,3.78
2023-01-19T11:39:49.540Z,3.80
2023-01-19T11:42:23.019Z,3.79
2023-01-19T11:45:04.730Z,3.92
2023-01-19T11:47:43.169Z,3.95
2023-01-19T11:50:25.727Z,3.92
2023-01-19T11:53:02.983Z,3.87
2023-01-19T11:55:41.490Z,3.95
2023-01-19T11:58:18.705Z,3.96
2023-01-19T12:00:55.627Z,4.01
2023-01-19T12:03:31.851Z,4.10
2023-01-19T12:06:07.592Z,4.13
2023-01-19T12:08:43.534Z,4.09
2023-01-19T12:11:19.915Z,3.98
2023-01-19T12:13:54.217Z,4.02
2023-01-19T12:16:28.504Z,3.91
2023-01-19T12:19:05.285Z,3.96
2023-01-19T12:21:37.210Z,4.04
2023-01-19T12:24:17.589Z,4.05
2023-01-19T12:26:54.582Z,3.95
2023-01-19T12:29:30.326Z,4.05
2023-01-19T12:32:33.701Z,4.00
2023-01-19T12:35:05.243Z,3.90
2023-01-19T12:37:41.199Z,3.91
2023-01-19T12:40:35.742Z,3.88
2023-01-19T12:43:09.283Z,3.93
2023-01-19T12:45:41.235Z,4.03
2023-01-19T12:48:28.481Z,3.94
2023-01-19T12:50:59.895Z,3.80
2023-01-19T12:53:32.156Z,3.91
2023-01-19T12:56:10.341Z,3.97
2023-01-19T12:58:49.351Z,4.00
2023-01-19T13:01:25.168Z,4.06
2023-01-19T13:04:06.922Z,4.02
2023-01-19T13:07:14.016Z,3.91
2023-01-19T13:09:45.385Z,3.92
2023-01-19T13:12:27.838Z,3.89
2023-01-19T13:15:35.622Z,3.91
2023-01-19T13:18:09.893Z,3.99
2023-01-19T13:20:49.628Z,4.09
2023-01-19T13:23:29.400Z,4.08
2023-01-19T13:26:07.064Z,3.93
2023-01-19T13:28:46.837Z,3.86
2023-01-19T13:31:19.381Z,3.81
2023-01-19T13:33:54.433Z,3.73
2023-01-19T13:36:33.257Z,3.78
2023-01-19T13:39:07.997Z,3.88
2023-01-19T13:41:40.513Z,3.99
2023-01-19T13:44:19.747Z,3.98
2023-01-19T13:46:51.894Z,3.96
2023-01-19T13:49:28.655Z,3.92
2023-01-19T13:52:14.043Z,3.82
2023-01-19T13:54:56.318Z,3.78
2023-01-19T13:57:33.035Z,3.73
2023-01-19T14:00:21.302Z,3.73
2023-01-19T14:02:59.148Z,3.84
2023-01-19T14:05:32.993Z,3.90
2023-01-19T14:08:13.693Z,3.90
2023-01-19T14:10:47.421Z,3.98
2023-01-19T14:13:21.851Z,3.93
2023-01-19T14:15:58.035Z,3.90
2023-01-19T14:18:31.999Z,3.91
2023-01-19T14:21:06.454Z,4.06
2023-01-19T14:23:49.908Z,4.18
2023-01-19T14:26:49.333Z,4.06
2023-01-19T14:29:25.886Z,3.98
2023-01-19T14:32:13.051Z,3.94
2023-01-19T14:34:46.257Z,3.91
2023-01-19T14:37:24.609Z,3.90
2023-01-19T14:40:00.674Z,3.89
2023-01-19T14:42:34.988Z,3.87
2023-01-19T14:45:15.606Z,3.91
2023-01-19T14:47:54.578Z,3.98
2023-01-19T14:50:28.872Z,3.94
2023-01-19T14:53:04.807Z,3.96
2023-01-19T14:55:44.774Z,4.10
2023-01-19T14:58:17.620Z,4.08
2023-01-19T15:00:50.039Z,4.00
2023-01-19T15:03:24.970Z,4.02
2023-01-19T15:06:00.462Z,4.03
2023-01-19T15:08:34.733Z,3.96
2023-01-19T15:11:11.859Z,3.89
2023-01-19T15:13:45.297Z,3.77
2023-01-19T15:16:28.105Z,3.77
2023-01-19T15:19:04.948Z,3.80
2023-01-19T15:21:49.760Z,3.79
2023-01-19T15:24:32.149Z,3.88
2023-01-19T15:27:06.148Z,4.00
2023-01-19T15:29:42.265Z,4.01
2023-01-19T15:32:20.165Z,3.92
2023-01-19T15:34:54.490Z,3.98
2023-01-19T15:37:36.281Z,4.00
2023-01-19T15:40:14.419Z,4.03
2023-01-19T15:42:52.011Z,4.17
2023-01-19T15:45:40.811Z,4.24
2023-01-19T15:48:15.127Z,4.19
2023-01-19T15:51:02.089Z,4.16
2023-01-19T15:53:40.359Z,4.08
2023-01-19T15:56:18.405Z,4.10
2023-01-19T15:58:58.439Z,4.02
2023-01-19T16:01:38.066Z,3.96
2023-01-19T16:04:18.027Z,3.93
2023-01-19T16:07:06.171Z,4.03
2023-01-19T16:09:43.025Z,4.17
2023-01-19T16:12:17.941Z,4.14
2023-01-19T16:15:10.835Z,4.09
2023-01-19T16:17:47.905Z,3.96
2023-01-19T16:20:30.268Z,4.02
2023-01-19T16:23:17.324Z,4.01
2023-01-19T16:26:03.697Z,3.94
2023-01-19T16:28:38.324Z,3.99
2023-01-19T16:31:17.297Z,3.98
2023-01-19T16:33:51.994Z,3.94
2023-01-19T16:36:34.730Z,3.86
2023-01-19T16:39:13.500Z,3.83
2023-01-19T16:41:49.747Z,3.82
2023-01-19T16:44:21.923Z,3.80
2023-01-19T16:46:55.910Z,3.81
2023-01-19T16:49:36.235Z,3.74
2023-01-19T16:52:16.715Z,3.69
2023-01-19T16:54:49.644Z,3.78
2023-01-19T16:57:21.936Z,3.75
2023-01-19T17:00:11.679Z,3.69
2023-01-19T17:02:58.431Z,3.71
2023-01-19T17:05:31.413Z,3.78
2023-01-19T17:08:14.613Z,3.84
2023-01-19T17:10:52.117Z,3.80
2023-01-19T17:13:39.660Z,3.75
2023-01-19T17:16:23.377Z,3.80
2023-01-19T17:19:10.105Z,3.78
2023-01-19T17:21:52.003Z,3.69
2023-01-19T17:24:25.216Z,3.72
2023-01-19T17:27:01.393Z,3.73
2023-01-19T17:29:43.430Z,3.66
2023-01-19T17:32:24.994Z,3.61
2023-01-19T17:35:04.613Z,3.71
2023-01-19T17:37:49.671Z,3.76
2023-01-19T17:40:33.815Z,3.82
2023-01-19T17:43:18.963Z,3.86
2023-01-19T17:45:50.068Z,3.78
2023-01-19T17:48:38.500Z,3.71
2023-01-19T17:51:15.439Z,3.73
2023-01-19T17:53:53.748Z,3.81
2023-01-19T17:56:33.250Z,3.71
2023-01-19T17:59:17.090Z,3.65
2023-01-19T18:02:09.038Z,3.69
2023-01-19T18:05:27.675Z,3.80
2023-01-19T18:08:09.690Z,3.81
2023-01-19T18:11:08.231Z,3.80
2023-01-19T18:13:54.285Z,3.73
2023-01-19T18:16:37.832Z,3.72
2023-01-19T18:19:23.563Z,3.63
2023-01-19T18:22:06.523Z,3.68
2023-01-19T18:25:11.228Z,3.72
2023-01-19T18:28:04.348Z,3.72
2023-01-19T18:31:16.601Z,3.71
2023-01-19T18:33:56.473Z,3.68
2023-01-19T18:36:47.681Z,3.60
2023-01-19T18:39:34.018Z,3.57
2023-01-19T18:42:15.907Z,3.52
2023-01-19T18:44:57.767Z,3.48
2023-01-19T18:47:56.299Z,3.43
2023-01-19T18:50:34.515Z,3.44
2023-01-19T18:53:18.024Z,3.51
2023-01-19T18:56:17.611Z,3.46
2023-01-19T18:58:57.423Z,3.52
2023-01-19T19:01:43.893Z,3.47
2023-01-19T19:04:42.754Z,3.47
2023-01-19T19:07:30.903Z,3.49
2023-01-19T19:10:27.810Z,3.57
2023-01-19T19:13:08.289Z,3.49
2023-01-19T19:15:45.727Z,3.48
2023-01-19T19:18:25.007Z,3.34
2023-01-19T19:21:16.794Z,3.32
2023-01-19T19:24:14.479Z,3.39
2023-01-19T19:27:12.045Z,3.38
2023-01-19T19:29:50.052Z,3.44
2023-01-19T19:32:48.891Z,3.48
2023-01-19T19:35:43.939Z,3.59
2023-01-19T19:38:39.502Z,3.61
2023-01-19T19:41:14.451Z,3.62
2023-01-19T19:43:58.070Z,3.64
2023-01-19T19:46:44.001Z,3.57
2023-01-19T19:49:42.208Z,3.54
2023-01-19T19:55:31.337Z,3.68
2023-01-19T19:58:12.406Z,3.70
2023-01-19T20:00:50.404Z,3.72
2023-01-19T20:03:49.904Z,3.73
2023-01-19T20:07:06.867Z,3.72
2023-01-19T20:09:54.563Z,3.82
2023-01-19T20:12:27.843Z,3.83
2023-01-19T20:15:01.042Z,3.65
2023-01-19T20:17:36.222Z,3.51
2023-01-19T20:20:16.265Z,3.46
2023-01-19T20:22:57.773Z,3.49
2023-01-19T20:25:36.872Z,3.42
2023-01-19T20:28:15.564Z,3.46
2023-01-19T20:30:49.848Z,3.46
2023-01-19T20:33:28.306Z,3.57
2023-01-19T20:36:05.152Z,3.58
2023-01-19T20:38:37.918Z,3.58
2023-01-19T20:41:15.445Z,3.52
2023-01-19T20:43:49.755Z,3.47
2023-01-19T20:46:26.909Z,3.46
2023-01-19T20:49:00.149Z,3.52
2023-01-19T20:51:32.995Z,3.63
2023-01-19T20:54:06.663Z,3.60
2023-01-19T20:56:43.945Z,3.67
2023-01-19T20:59:20.819Z,3.60
2023-01-19T21:01:55.100Z,3.51
2023-01-19T21:04:34.411Z,3.55
2023-01-19T21:07:11.381Z,3.61
2023-01-19T21:09:46.794Z,3.51
2023-01-19T21:12:25.994Z,3.45
2023-01-19T21:15:01.796Z,3.49
2023-01-19T21:17:50.683Z,3.52
2023-01-19T21:20:52.660Z,3.49
2023-01-19T21:23:28.321Z,3.63
2023-01-19T21:26:08.631Z,3.68
2023-01-19T21:28:52.411Z,3.69
2023-01-19T21:31:45.619Z,3.68
2023-01-19T21:34:24.195Z,3.62
2023-01-19T21:37:08.664Z,3.62
2023-01-19T21:39:42.612Z,3.59
2023-01-19T21:42:18.281Z,3.56
2023-01-19T21:44:50.411Z,3.64
2023-01-19T21:47:24.328Z,3.67
2023-01-19T21:50:04.960Z,3.71
2023-01-19T21:52:36.951Z,3.61
2023-01-19T21:55:14.379Z,3.54
2023-01-19T21:57:59.413Z,3.66
2023-01-19T22:00:32.259Z,3.60
2023-01-19T22:03:06.170Z,3.54
2023-01-19T22:05:44.506Z,3.60
2023-01-19T22:08:18.476Z,3.56
2023-01-19T22:11:04.947Z,3.57
2023-01-19T22:13:38.856Z,3.53
2023-01-19T22:16:14.183Z,3.50
2023-01-19T22:18:51.679Z,3.36
2023-01-19T22:21:27.155Z,3.31
2023-01-19T22:24:07.266Z,3.32
2023-01-19T22:26:39.566Z,3.41
2023-01-19T22:29:13.884Z,3.39
2023-01-19T22:31:49.230Z,3.40
2023-01-19T22:34:33.625Z,3.55
2023-01-19T22:37:13.621Z,3.56
2023-01-19T22:39:47.415Z,3.44
2023-01-19T22:42:21.449Z,3.40
2023-01-19T22:44:53.251Z,3.34
2023-01-19T22:47:36.400Z,3.34
2023-01-19T22:50:10.650Z,3.28
2023-01-19T22:52:45.610Z,3.25
2023-01-19T22:55:22.195Z,3.32
2023-01-19T22:57:54.314Z,3.36
2023-01-19T23:00:37.733Z,3.39
2023-01-19T23:03:11.986Z,3.44
2023-01-19T23:05:48.119Z,3.42
2023-01-19T23:08:21.566Z,3.35
2023-01-19T23:10:59.725Z,3.30
2023-01-19T23:13:35.042Z,3.24
2023-01-19T23:16:12.376Z,3.24
2023-01-19T23:18:45.203Z,3.24
2023-01-19T23:21:20.967Z,3.11
2023-01-19T23:24:07.243Z,2.97
2023-01-19T23:26:43.684Z,3.02
2023-01-19T23:29:18.412Z,3.04
2023-01-19T23:31:57.943Z,2.97
2023-01-19T23:34:31.653Z,2.94
2023-01-19T23:37:14.423Z,2.89
2023-01-19T23:39:49.672Z,2.89
2023-01-19T23:42:30.613Z,2.90
2023-01-19T23:45:04.602Z,2.87
2023-01-19T23:47:44.492Z,2.93
2023-01-19T23:50:24.025Z,3.04
2023-01-19T23:53:02.388Z,2.97
2023-01-19T23:55:36.799Z,2.98
2023-01-19T23:58:11.423Z,3.08
